sensor_id;sensor_type;location;lat;lon;timestamp;temperature;humidity
15872;DHT22;8035;51.962;7.162;2023-08-31T00:00:07;12.80;99.90
15872;DHT22;8035;51.962;7.162;2023-08-31T00:02:34;12.80;99.90
15872;DHT22;8035;51.962;7.162;2023-08-31T00:05:00;12.80;99.90
15872;DHT22;8035;51.962;7.162;2023-08-31T00:07:26;12.70;99.90
15872;DHT22;8035;51.962;7.162;2023-08-31T00:09:51;12.70;99.90
15872;DHT22;8035;51.962;7.162;2023-08-31T00:12:17;12.70;99.90
15872;DHT22;8035;51.962;7.162;2023-08-31T00:14:42;12.70;99.90
15872;DHT22;8035;51.962;7.162;2023-08-31T00:17:08;12.70;99.90
15872;DHT22;8035;51.962;7.162;2023-08-31T00:19:33;12.70;99.90
15872;DHT22;8035;51.962;7.162;2023-08-31T00:21:59;12.60;99.90
15872;DHT22;8035;51.962;7.162;2023-08-31T00:24:24;12.60;99.90
15872;DHT22;8035;51.962;7.162;2023-08-31T00:26:55;12.60;99.90
15872;DHT22;8035;51.962;7.162;2023-08-31T00:29:20;12.50;99.90
15872;DHT22;8035;51.962;7.162;2023-08-31T00:31:46;12.60;99.90
15872;DHT22;8035;51.962;7.162;2023-08-31T00:34:13;12.60;99.90
15872;DHT22;8035;51.962;7.162;2023-08-31T00:36:40;12.60;99.90
15872;DHT22;8035;51.962;7.162;2023-08-31T00:39:06;12.60;99.90
15872;DHT22;8035;51.962;7.162;2023-08-31T00:41:32;12.60;99.90
15872;DHT22;8035;51.962;7.162;2023-08-31T00:43:57;12.50;99.90
15872;DHT22;8035;51.962;7.162;2023-08-31T00:46:24;12.50;99.90
15872;DHT22;8035;51.962;7.162;2023-08-31T00:48:49;12.50;99.90
15872;DHT22;8035;51.962;7.162;2023-08-31T00:51:15;12.50;99.90
15872;DHT22;8035;51.962;7.162;2023-08-31T00:53:41;12.50;99.90
15872;DHT22;8035;51.962;7.162;2023-08-31T00:56:07;12.50;99.90
15872;DHT22;8035;51.962;7.162;2023-08-31T00:58:33;12.50;99.90
15872;DHT22;8035;51.962;7.162;2023-08-31T01:09:24;12.50;99.90
15872;DHT22;8035;51.962;7.162;2023-08-31T01:12:09;12.50;99.90
15872;DHT22;8035;51.962;7.162;2023-08-31T01:14:42;12.50;99.90
15872;DHT22;8035;51.962;7.162;2023-08-31T01:17:12;12.50;99.90
15872;DHT22;8035;51.962;7.162;2023-08-31T01:19:44;12.50;99.90
15872;DHT22;8035;51.962;7.162;2023-08-31T01:22:25;12.50;99.90
15872;DHT22;8035;51.962;7.162;2023-08-31T01:24:53;12.50;99.90
15872;DHT22;8035;51.962;7.162;2023-08-31T01:27:19;12.50;99.90
15872;DHT22;8035;51.962;7.162;2023-08-31T01:29:45;12.50;99.90
15872;DHT22;8035;51.962;7.162;2023-08-31T01:32:11;12.40;99.90
15872;DHT22;8035;51.962;7.162;2023-08-31T01:34:36;12.40;99.90
15872;DHT22;8035;51.962;7.162;2023-08-31T01:37:10;12.30;99.90
15872;DHT22;8035;51.962;7.162;2023-08-31T01:39:58;12.30;99.90
15872;DHT22;8035;51.962;7.162;2023-08-31T01:42:28;12.30;99.90
15872;DHT22;8035;51.962;7.162;2023-08-31T01:44:56;12.20;99.90
15872;DHT22;8035;51.962;7.162;2023-08-31T01:47:22;12.20;99.90
15872;DHT22;8035;51.962;7.162;2023-08-31T01:49:48;12.10;99.90
15872;DHT22;8035;51.962;7.162;2023-08-31T01:52:13;12.10;99.90
15872;DHT22;8035;51.962;7.162;2023-08-31T01:54:39;12.10;99.90
15872;DHT22;8035;51.962;7.162;2023-08-31T01:57:04;12.10;99.90
15872;DHT22;8035;51.962;7.162;2023-08-31T01:59:32;12.00;99.90
15872;DHT22;8035;51.962;7.162;2023-08-31T02:01:57;12.00;99.90
15872;DHT22;8035;51.962;7.162;2023-08-31T02:04:23;12.00;99.90
15872;DHT22;8035;51.962;7.162;2023-08-31T02:06:49;12.00;99.90
15872;DHT22;8035;51.962;7.162;2023-08-31T02:09:14;11.90;99.90
15872;DHT22;8035;51.962;7.162;2023-08-31T02:11:40;11.80;99.90
15872;DHT22;8035;51.962;7.162;2023-08-31T02:14:06;11.80;99.90
15872;DHT22;8035;51.962;7.162;2023-08-31T02:16:33;11.80;99.90
15872;DHT22;8035;51.962;7.162;2023-08-31T02:18:59;11.80;99.90
15872;DHT22;8035;51.962;7.162;2023-08-31T02:21:24;11.70;99.90
15872;DHT22;8035;51.962;7.162;2023-08-31T02:23:50;11.70;99.90
15872;DHT22;8035;51.962;7.162;2023-08-31T02:26:15;11.70;99.90
15872;DHT22;8035;51.962;7.162;2023-08-31T02:28:41;11.70;99.90
15872;DHT22;8035;51.962;7.162;2023-08-31T02:31:06;11.70;99.90
15872;DHT22;8035;51.962;7.162;2023-08-31T02:33:32;11.70;99.90
15872;DHT22;8035;51.962;7.162;2023-08-31T02:35:58;11.70;99.90
15872;DHT22;8035;51.962;7.162;2023-08-31T02:38:24;11.70;99.90
15872;DHT22;8035;51.962;7.162;2023-08-31T02:40:49;11.70;99.90
15872;DHT22;8035;51.962;7.162;2023-08-31T02:43:15;11.70;99.90
15872;DHT22;8035;51.962;7.162;2023-08-31T02:45:41;11.70;99.90
15872;DHT22;8035;51.962;7.162;2023-08-31T02:48:09;11.70;99.90
15872;DHT22;8035;51.962;7.162;2023-08-31T02:50:35;11.60;99.90
15872;DHT22;8035;51.962;7.162;2023-08-31T02:53:01;11.60;99.90
15872;DHT22;8035;51.962;7.162;2023-08-31T02:55:26;11.60;99.90
15872;DHT22;8035;51.962;7.162;2023-08-31T02:57:53;11.60;99.90
15872;DHT22;8035;51.962;7.162;2023-08-31T03:00:18;11.50;99.90
15872;DHT22;8035;51.962;7.162;2023-08-31T03:02:47;11.50;99.90
15872;DHT22;8035;51.962;7.162;2023-08-31T03:05:13;11.40;99.90
15872;DHT22;8035;51.962;7.162;2023-08-31T03:07:39;11.40;99.90
15872;DHT22;8035;51.962;7.162;2023-08-31T03:10:05;11.40;99.90
15872;DHT22;8035;51.962;7.162;2023-08-31T03:12:30;11.30;99.90
15872;DHT22;8035;51.962;7.162;2023-08-31T03:14:56;11.30;99.90
15872;DHT22;8035;51.962;7.162;2023-08-31T03:17:22;11.30;99.90
15872;DHT22;8035;51.962;7.162;2023-08-31T03:19:47;11.30;99.90
15872;DHT22;8035;51.962;7.162;2023-08-31T03:22:13;11.30;99.90
15872;DHT22;8035;51.962;7.162;2023-08-31T03:24:38;11.30;99.90
15872;DHT22;8035;51.962;7.162;2023-08-31T03:27:04;11.30;99.90
15872;DHT22;8035;51.962;7.162;2023-08-31T03:29:29;11.30;99.90
15872;DHT22;8035;51.962;7.162;2023-08-31T03:31:57;11.20;99.90
15872;DHT22;8035;51.962;7.162;2023-08-31T03:34:23;11.30;99.90
15872;DHT22;8035;51.962;7.162;2023-08-31T03:36:48;11.30;99.90
15872;DHT22;8035;51.962;7.162;2023-08-31T03:39:15;11.30;99.90
15872;DHT22;8035;51.962;7.162;2023-08-31T03:41:41;11.30;99.90
15872;DHT22;8035;51.962;7.162;2023-08-31T03:44:06;11.30;99.90
15872;DHT22;8035;51.962;7.162;2023-08-31T03:46:32;11.40;99.90
15872;DHT22;8035;51.962;7.162;2023-08-31T03:48:57;11.40;99.90
15872;DHT22;8035;51.962;7.162;2023-08-31T03:51:23;11.40;99.90
15872;DHT22;8035;51.962;7.162;2023-08-31T03:53:48;11.40;99.90
15872;DHT22;8035;51.962;7.162;2023-08-31T03:56:14;11.40;99.90
15872;DHT22;8035;51.962;7.162;2023-08-31T03:58:39;11.40;99.90
15872;DHT22;8035;51.962;7.162;2023-08-31T04:01:05;11.50;99.90
15872;DHT22;8035;51.962;7.162;2023-08-31T04:03:31;11.50;99.90
15872;DHT22;8035;51.962;7.162;2023-08-31T04:05:57;11.50;99.90
15872;DHT22;8035;51.962;7.162;2023-08-31T04:08:22;11.50;99.90
15872;DHT22;8035;51.962;7.162;2023-08-31T04:10:48;11.50;99.90
15872;DHT22;8035;51.962;7.162;2023-08-31T04:13:13;11.50;99.90
15872;DHT22;8035;51.962;7.162;2023-08-31T04:15:39;11.50;99.90
15872;DHT22;8035;51.962;7.162;2023-08-31T04:18:04;11.50;99.90
15872;DHT22;8035;51.962;7.162;2023-08-31T04:20:32;11.60;99.90
15872;DHT22;8035;51.962;7.162;2023-08-31T04:22:57;11.50;99.90
15872;DHT22;8035;51.962;7.162;2023-08-31T04:25:23;11.60;99.90
15872;DHT22;8035;51.962;7.162;2023-08-31T04:27:49;11.50;99.90
15872;DHT22;8035;51.962;7.162;2023-08-31T04:30:14;11.50;99.90
15872;DHT22;8035;51.962;7.162;2023-08-31T04:32:41;11.60;99.90
15872;DHT22;8035;51.962;7.162;2023-08-31T04:35:06;11.60;99.90
15872;DHT22;8035;51.962;7.162;2023-08-31T04:37:33;11.60;99.90
15872;DHT22;8035;51.962;7.162;2023-08-31T04:39:58;11.50;99.90
15872;DHT22;8035;51.962;7.162;2023-08-31T04:42:24;11.50;99.90
15872;DHT22;8035;51.962;7.162;2023-08-31T04:44:50;11.60;99.90
15872;DHT22;8035;51.962;7.162;2023-08-31T04:47:15;11.60;99.90
15872;DHT22;8035;51.962;7.162;2023-08-31T04:49:41;11.60;99.90
15872;DHT22;8035;51.962;7.162;2023-08-31T04:52:07;11.50;99.90
15872;DHT22;8035;51.962;7.162;2023-08-31T04:54:32;11.60;99.90
15872;DHT22;8035;51.962;7.162;2023-08-31T04:56:58;11.60;99.90
15872;DHT22;8035;51.962;7.162;2023-08-31T04:59:23;11.60;99.90
15872;DHT22;8035;51.962;7.162;2023-08-31T05:01:49;11.60;99.90
15872;DHT22;8035;51.962;7.162;2023-08-31T05:04:14;11.60;99.90
15872;DHT22;8035;51.962;7.162;2023-08-31T05:06:40;11.60;99.90
15872;DHT22;8035;51.962;7.162;2023-08-31T05:09:05;11.60;99.90
15872;DHT22;8035;51.962;7.162;2023-08-31T05:11:31;11.60;99.90
15872;DHT22;8035;51.962;7.162;2023-08-31T05:13:57;11.60;99.90
15872;DHT22;8035;51.962;7.162;2023-08-31T05:16:22;11.60;99.90
15872;DHT22;8035;51.962;7.162;2023-08-31T05:18:49;11.70;99.90
15872;DHT22;8035;51.962;7.162;2023-08-31T05:21:15;11.70;99.90
15872;DHT22;8035;51.962;7.162;2023-08-31T05:23:40;11.70;99.90
15872;DHT22;8035;51.962;7.162;2023-08-31T05:26:06;11.70;99.90
15872;DHT22;8035;51.962;7.162;2023-08-31T05:28:32;11.70;99.90
15872;DHT22;8035;51.962;7.162;2023-08-31T05:31:00;11.70;99.90
15872;DHT22;8035;51.962;7.162;2023-08-31T05:33:26;11.70;99.90
15872;DHT22;8035;51.962;7.162;2023-08-31T05:35:53;11.70;99.90
15872;DHT22;8035;51.962;7.162;2023-08-31T05:38:18;11.70;99.90
15872;DHT22;8035;51.962;7.162;2023-08-31T05:40:44;11.70;99.90
15872;DHT22;8035;51.962;7.162;2023-08-31T05:43:12;11.70;99.90
15872;DHT22;8035;51.962;7.162;2023-08-31T05:45:38;11.70;99.90
15872;DHT22;8035;51.962;7.162;2023-08-31T05:48:04;11.80;99.90
15872;DHT22;8035;51.962;7.162;2023-08-31T05:50:30;11.80;99.90
15872;DHT22;8035;51.962;7.162;2023-08-31T05:52:56;11.80;99.90
15872;DHT22;8035;51.962;7.162;2023-08-31T05:55:22;11.80;99.90
15872;DHT22;8035;51.962;7.162;2023-08-31T05:57:47;11.80;99.90
15872;DHT22;8035;51.962;7.162;2023-08-31T06:00:13;11.90;99.90
15872;DHT22;8035;51.962;7.162;2023-08-31T06:02:39;11.90;99.90
15872;DHT22;8035;51.962;7.162;2023-08-31T06:05:05;11.90;99.90
15872;DHT22;8035;51.962;7.162;2023-08-31T06:07:31;11.90;99.90
15872;DHT22;8035;51.962;7.162;2023-08-31T06:09:57;11.90;99.90
15872;DHT22;8035;51.962;7.162;2023-08-31T06:12:22;11.90;99.90
15872;DHT22;8035;51.962;7.162;2023-08-31T06:14:48;11.90;99.90
15872;DHT22;8035;51.962;7.162;2023-08-31T06:17:13;11.80;99.90
15872;DHT22;8035;51.962;7.162;2023-08-31T06:19:40;11.80;99.90
15872;DHT22;8035;51.962;7.162;2023-08-31T06:22:06;11.80;99.90
15872;DHT22;8035;51.962;7.162;2023-08-31T06:24:32;11.90;99.90
15872;DHT22;8035;51.962;7.162;2023-08-31T06:26:58;11.90;99.90
15872;DHT22;8035;51.962;7.162;2023-08-31T06:29:24;12.00;99.90
15872;DHT22;8035;51.962;7.162;2023-08-31T06:31:49;12.00;99.90
15872;DHT22;8035;51.962;7.162;2023-08-31T06:34:15;12.10;99.90
15872;DHT22;8035;51.962;7.162;2023-08-31T06:36:40;12.10;99.90
15872;DHT22;8035;51.962;7.162;2023-08-31T06:39:06;12.10;99.90
15872;DHT22;8035;51.962;7.162;2023-08-31T06:41:32;12.20;99.90
15872;DHT22;8035;51.962;7.162;2023-08-31T06:43:57;12.20;99.90
15872;DHT22;8035;51.962;7.162;2023-08-31T06:46:23;12.30;99.90
15872;DHT22;8035;51.962;7.162;2023-08-31T06:48:49;12.40;99.90
15872;DHT22;8035;51.962;7.162;2023-08-31T06:51:15;12.40;99.90
15872;DHT22;8035;51.962;7.162;2023-08-31T06:53:43;12.50;99.90
15872;DHT22;8035;51.962;7.162;2023-08-31T06:56:09;12.50;99.90
15872;DHT22;8035;51.962;7.162;2023-08-31T06:58:34;12.60;99.90
15872;DHT22;8035;51.962;7.162;2023-08-31T07:01:00;12.60;99.90
15872;DHT22;8035;51.962;7.162;2023-08-31T07:03:26;12.60;99.90
15872;DHT22;8035;51.962;7.162;2023-08-31T07:05:52;12.60;99.90
15872;DHT22;8035;51.962;7.162;2023-08-31T07:08:17;12.70;99.90
15872;DHT22;8035;51.962;7.162;2023-08-31T07:10:43;12.70;99.90
15872;DHT22;8035;51.962;7.162;2023-08-31T07:13:08;12.70;99.90
15872;DHT22;8035;51.962;7.162;2023-08-31T07:15:35;12.70;99.90
15872;DHT22;8035;51.962;7.162;2023-08-31T07:18:01;12.80;99.90
15872;DHT22;8035;51.962;7.162;2023-08-31T07:20:26;12.80;99.90
15872;DHT22;8035;51.962;7.162;2023-08-31T07:22:52;12.90;99.90
15872;DHT22;8035;51.962;7.162;2023-08-31T07:25:18;13.00;99.90
15872;DHT22;8035;51.962;7.162;2023-08-31T07:27:43;13.10;99.90
15872;DHT22;8035;51.962;7.162;2023-08-31T07:30:09;13.10;99.90
15872;DHT22;8035;51.962;7.162;2023-08-31T07:32:35;13.10;99.90
15872;DHT22;8035;51.962;7.162;2023-08-31T07:35:01;13.10;99.90
15872;DHT22;8035;51.962;7.162;2023-08-31T07:37:30;13.10;99.90
15872;DHT22;8035;51.962;7.162;2023-08-31T07:39:55;13.20;99.90
15872;DHT22;8035;51.962;7.162;2023-08-31T07:42:21;13.50;99.90
15872;DHT22;8035;51.962;7.162;2023-08-31T07:44:46;13.80;99.90
15872;DHT22;8035;51.962;7.162;2023-08-31T07:47:12;14.20;99.90
15872;DHT22;8035;51.962;7.162;2023-08-31T07:49:38;14.50;99.90
15872;DHT22;8035;51.962;7.162;2023-08-31T07:52:03;14.90;99.90
15872;DHT22;8035;51.962;7.162;2023-08-31T07:54:29;15.10;99.90
15872;DHT22;8035;51.962;7.162;2023-08-31T07:56:54;15.20;99.90
15872;DHT22;8035;51.962;7.162;2023-08-31T07:59:20;15.20;99.90
15872;DHT22;8035;51.962;7.162;2023-08-31T08:01:47;15.40;99.90
15872;DHT22;8035;51.962;7.162;2023-08-31T08:04:13;15.50;99.90
15872;DHT22;8035;51.962;7.162;2023-08-31T08:06:38;15.50;99.90
15872;DHT22;8035;51.962;7.162;2023-08-31T08:09:04;15.70;99.90
15872;DHT22;8035;51.962;7.162;2023-08-31T08:11:30;15.90;99.90
15872;DHT22;8035;51.962;7.162;2023-08-31T08:13:56;16.00;99.90
15872;DHT22;8035;51.962;7.162;2023-08-31T08:16:21;16.10;99.90
15872;DHT22;8035;51.962;7.162;2023-08-31T08:18:47;16.20;99.90
15872;DHT22;8035;51.962;7.162;2023-08-31T08:21:12;16.20;99.90
15872;DHT22;8035;51.962;7.162;2023-08-31T08:23:38;16.00;99.90
15872;DHT22;8035;51.962;7.162;2023-08-31T08:26:03;15.80;99.90
15872;DHT22;8035;51.962;7.162;2023-08-31T08:28:29;15.60;99.90
15872;DHT22;8035;51.962;7.162;2023-08-31T08:30:54;15.60;99.90
15872;DHT22;8035;51.962;7.162;2023-08-31T08:33:20;15.60;99.90
15872;DHT22;8035;51.962;7.162;2023-08-31T08:35:46;15.60;99.90
15872;DHT22;8035;51.962;7.162;2023-08-31T08:38:11;15.60;99.90
15872;DHT22;8035;51.962;7.162;2023-08-31T08:40:37;15.50;99.90
15872;DHT22;8035;51.962;7.162;2023-08-31T08:43:05;15.40;99.90
15872;DHT22;8035;51.962;7.162;2023-08-31T08:45:36;15.50;99.90
15872;DHT22;8035;51.962;7.162;2023-08-31T08:48:05;15.70;99.90
15872;DHT22;8035;51.962;7.162;2023-08-31T08:50:32;16.00;99.90
15872;DHT22;8035;51.962;7.162;2023-08-31T08:53:00;16.30;99.90
15872;DHT22;8035;51.962;7.162;2023-08-31T08:55:27;16.50;99.90
15872;DHT22;8035;51.962;7.162;2023-08-31T08:57:53;16.60;99.90
15872;DHT22;8035;51.962;7.162;2023-08-31T09:00:18;16.60;99.90
15872;DHT22;8035;51.962;7.162;2023-08-31T09:02:44;16.80;99.90
15872;DHT22;8035;51.962;7.162;2023-08-31T09:05:11;17.00;99.90
15872;DHT22;8035;51.962;7.162;2023-08-31T09:07:36;17.10;99.90
15872;DHT22;8035;51.962;7.162;2023-08-31T09:10:03;17.30;99.90
15872;DHT22;8035;51.962;7.162;2023-08-31T09:12:29;17.40;99.90
15872;DHT22;8035;51.962;7.162;2023-08-31T09:14:59;17.40;99.90
15872;DHT22;8035;51.962;7.162;2023-08-31T09:17:25;17.20;99.90
15872;DHT22;8035;51.962;7.162;2023-08-31T09:20:00;17.00;99.90
15872;DHT22;8035;51.962;7.162;2023-08-31T09:22:33;17.00;99.90
15872;DHT22;8035;51.962;7.162;2023-08-31T09:24:59;17.00;99.90
15872;DHT22;8035;51.962;7.162;2023-08-31T09:27:24;17.20;99.90
15872;DHT22;8035;51.962;7.162;2023-08-31T09:29:50;17.20;99.90
15872;DHT22;8035;51.962;7.162;2023-08-31T09:32:19;17.50;99.90
15872;DHT22;8035;51.962;7.162;2023-08-31T09:34:45;17.60;99.90
15872;DHT22;8035;51.962;7.162;2023-08-31T09:37:11;17.90;99.90
15872;DHT22;8035;51.962;7.162;2023-08-31T09:39:38;18.10;99.90
15872;DHT22;8035;51.962;7.162;2023-08-31T09:42:04;18.20;99.90
15872;DHT22;8035;51.962;7.162;2023-08-31T09:44:30;18.20;99.90
15872;DHT22;8035;51.962;7.162;2023-08-31T09:46:56;17.90;99.90
15872;DHT22;8035;51.962;7.162;2023-08-31T09:49:22;17.70;99.90
15872;DHT22;8035;51.962;7.162;2023-08-31T09:51:50;17.50;99.90
15872;DHT22;8035;51.962;7.162;2023-08-31T09:54:19;17.60;99.90
15872;DHT22;8035;51.962;7.162;2023-08-31T09:56:47;17.70;99.90
15872;DHT22;8035;51.962;7.162;2023-08-31T09:59:14;17.80;99.90
15872;DHT22;8035;51.962;7.162;2023-08-31T10:01:41;17.90;99.90
15872;DHT22;8035;51.962;7.162;2023-08-31T10:04:07;17.80;99.90
15872;DHT22;8035;51.962;7.162;2023-08-31T10:06:39;17.90;99.90
15872;DHT22;8035;51.962;7.162;2023-08-31T10:09:04;17.90;99.90
15872;DHT22;8035;51.962;7.162;2023-08-31T10:11:31;18.20;99.90
15872;DHT22;8035;51.962;7.162;2023-08-31T10:13:58;18.40;99.90
15872;DHT22;8035;51.962;7.162;2023-08-31T10:16:25;18.60;99.90
15872;DHT22;8035;51.962;7.162;2023-08-31T10:18:51;18.80;99.90
15872;DHT22;8035;51.962;7.162;2023-08-31T10:21:18;18.60;99.90
15872;DHT22;8035;51.962;7.162;2023-08-31T10:23:48;18.50;99.90
15872;DHT22;8035;51.962;7.162;2023-08-31T10:26:33;18.30;99.90
15872;DHT22;8035;51.962;7.162;2023-08-31T10:28:59;18.00;99.90
15872;DHT22;8035;51.962;7.162;2023-08-31T10:31:29;17.90;99.90
15872;DHT22;8035;51.962;7.162;2023-08-31T10:36:21;17.40;99.90
15872;DHT22;8035;51.962;7.162;2023-08-31T10:41:22;17.40;99.90
15872;DHT22;8035;51.962;7.162;2023-08-31T10:43:56;17.40;99.90
15872;DHT22;8035;51.962;7.162;2023-08-31T10:46:42;17.60;99.90
15872;DHT22;8035;51.962;7.162;2023-08-31T10:51:38;18.40;99.90
15872;DHT22;8035;51.962;7.162;2023-08-31T10:56:51;18.90;99.90
15872;DHT22;8035;51.962;7.162;2023-08-31T10:59:19;18.40;99.90
15872;DHT22;8035;51.962;7.162;2023-08-31T11:04:21;17.90;99.90
15872;DHT22;8035;51.962;7.162;2023-08-31T11:06:47;17.50;99.90
15872;DHT22;8035;51.962;7.162;2023-08-31T11:09:20;17.30;99.90
15872;DHT22;8035;51.962;7.162;2023-08-31T11:11:47;17.00;99.90
15872;DHT22;8035;51.962;7.162;2023-08-31T11:14:14;16.90;99.90
15872;DHT22;8035;51.962;7.162;2023-08-31T11:16:40;17.00;99.90
15872;DHT22;8035;51.962;7.162;2023-08-31T11:19:05;17.10;99.90
15872;DHT22;8035;51.962;7.162;2023-08-31T11:21:31;17.20;99.90
15872;DHT22;8035;51.962;7.162;2023-08-31T11:23:58;17.50;99.90
15872;DHT22;8035;51.962;7.162;2023-08-31T11:26:25;18.10;99.90
15872;DHT22;8035;51.962;7.162;2023-08-31T11:28:51;18.70;99.90
15872;DHT22;8035;51.962;7.162;2023-08-31T11:31:26;19.20;99.90
15872;DHT22;8035;51.962;7.162;2023-08-31T11:33:54;19.70;99.90
15872;DHT22;8035;51.962;7.162;2023-08-31T11:36:20;19.90;99.90
15872;DHT22;8035;51.962;7.162;2023-08-31T11:38:48;20.20;99.90
15872;DHT22;8035;51.962;7.162;2023-08-31T11:41:13;20.20;99.90
15872;DHT22;8035;51.962;7.162;2023-08-31T11:43:39;20.40;99.90
15872;DHT22;8035;51.962;7.162;2023-08-31T11:46:05;20.80;99.90
15872;DHT22;8035;51.962;7.162;2023-08-31T11:48:31;21.10;99.90
15872;DHT22;8035;51.962;7.162;2023-08-31T11:50:58;21.20;99.90
15872;DHT22;8035;51.962;7.162;2023-08-31T11:53:24;21.20;99.90
15872;DHT22;8035;51.962;7.162;2023-08-31T11:55:52;20.90;99.90
15872;DHT22;8035;51.962;7.162;2023-08-31T11:58:19;20.60;99.90
15872;DHT22;8035;51.962;7.162;2023-08-31T12:00:45;20.00;99.90
15872;DHT22;8035;51.962;7.162;2023-08-31T12:03:12;19.50;99.90
15872;DHT22;8035;51.962;7.162;2023-08-31T12:05:47;19.10;99.90
15872;DHT22;8035;51.962;7.162;2023-08-31T12:08:23;18.60;99.90
15872;DHT22;8035;51.962;7.162;2023-08-31T12:10:49;18.40;99.90
15872;DHT22;8035;51.962;7.162;2023-08-31T12:13:14;18.30;99.90
15872;DHT22;8035;51.962;7.162;2023-08-31T12:15:40;18.20;99.90
15872;DHT22;8035;51.962;7.162;2023-08-31T12:18:13;18.00;99.90
15872;DHT22;8035;51.962;7.162;2023-08-31T12:20:45;17.70;99.90
15872;DHT22;8035;51.962;7.162;2023-08-31T12:23:11;17.50;99.90
15872;DHT22;8035;51.962;7.162;2023-08-31T12:25:36;17.50;99.90
15872;DHT22;8035;51.962;7.162;2023-08-31T12:28:02;17.50;99.90
15872;DHT22;8035;51.962;7.162;2023-08-31T12:30:28;17.70;99.90
15872;DHT22;8035;51.962;7.162;2023-08-31T12:32:54;18.00;99.90
15872;DHT22;8035;51.962;7.162;2023-08-31T12:35:19;18.40;99.90
15872;DHT22;8035;51.962;7.162;2023-08-31T12:37:46;18.70;99.90
15872;DHT22;8035;51.962;7.162;2023-08-31T12:40:12;19.20;99.90
15872;DHT22;8035;51.962;7.162;2023-08-31T12:42:37;19.50;99.90
15872;DHT22;8035;51.962;7.162;2023-08-31T12:45:03;19.30;99.90
15872;DHT22;8035;51.962;7.162;2023-08-31T12:47:31;19.20;99.90
15872;DHT22;8035;51.962;7.162;2023-08-31T12:49:56;19.20;99.90
15872;DHT22;8035;51.962;7.162;2023-08-31T12:52:23;19.20;99.90
15872;DHT22;8035;51.962;7.162;2023-08-31T12:54:49;19.10;99.90
15872;DHT22;8035;51.962;7.162;2023-08-31T12:57:15;18.90;99.90
15872;DHT22;8035;51.962;7.162;2023-08-31T12:59:40;19.00;99.90
15872;DHT22;8035;51.962;7.162;2023-08-31T13:02:07;19.10;99.90
15872;DHT22;8035;51.962;7.162;2023-08-31T13:04:36;19.30;99.90
15872;DHT22;8035;51.962;7.162;2023-08-31T13:07:01;19.50;99.90
15872;DHT22;8035;51.962;7.162;2023-08-31T13:09:27;19.70;99.90
15872;DHT22;8035;51.962;7.162;2023-08-31T13:11:53;20.00;99.90
15872;DHT22;8035;51.962;7.162;2023-08-31T13:14:18;20.10;99.90
15872;DHT22;8035;51.962;7.162;2023-08-31T13:16:44;20.20;99.90
15872;DHT22;8035;51.962;7.162;2023-08-31T13:19:09;20.20;99.90
15872;DHT22;8035;51.962;7.162;2023-08-31T13:21:35;20.20;99.90
15872;DHT22;8035;51.962;7.162;2023-08-31T13:24:01;20.10;99.90
15872;DHT22;8035;51.962;7.162;2023-08-31T13:26:26;20.10;99.90
15872;DHT22;8035;51.962;7.162;2023-08-31T13:28:52;20.10;99.90
15872;DHT22;8035;51.962;7.162;2023-08-31T13:31:18;20.20;99.90
15872;DHT22;8035;51.962;7.162;2023-08-31T13:33:43;20.10;99.90
15872;DHT22;8035;51.962;7.162;2023-08-31T13:36:09;20.20;99.90
15872;DHT22;8035;51.962;7.162;2023-08-31T13:38:35;20.10;99.90
15872;DHT22;8035;51.962;7.162;2023-08-31T13:41:00;20.10;99.90
15872;DHT22;8035;51.962;7.162;2023-08-31T13:43:26;20.20;99.90
15872;DHT22;8035;51.962;7.162;2023-08-31T13:45:52;20.40;99.90
15872;DHT22;8035;51.962;7.162;2023-08-31T13:48:18;20.50;99.90
15872;DHT22;8035;51.962;7.162;2023-08-31T13:50:43;20.50;99.90
15872;DHT22;8035;51.962;7.162;2023-08-31T13:53:11;20.60;99.90
15872;DHT22;8035;51.962;7.162;2023-08-31T13:55:36;20.60;99.90
15872;DHT22;8035;51.962;7.162;2023-08-31T13:58:07;20.70;99.90
15872;DHT22;8035;51.962;7.162;2023-08-31T14:00:36;20.80;99.90
15872;DHT22;8035;51.962;7.162;2023-08-31T14:03:03;20.70;99.90
15872;DHT22;8035;51.962;7.162;2023-08-31T14:05:29;20.60;99.90
15872;DHT22;8035;51.962;7.162;2023-08-31T14:07:56;20.50;99.90
15872;DHT22;8035;51.962;7.162;2023-08-31T14:10:21;20.40;99.90
15872;DHT22;8035;51.962;7.162;2023-08-31T14:12:47;20.40;99.90
15872;DHT22;8035;51.962;7.162;2023-08-31T14:15:13;20.40;99.90
15872;DHT22;8035;51.962;7.162;2023-08-31T14:17:38;20.40;99.90
15872;DHT22;8035;51.962;7.162;2023-08-31T14:20:04;20.20;99.90
15872;DHT22;8035;51.962;7.162;2023-08-31T14:22:33;20.20;99.90
15872;DHT22;8035;51.962;7.162;2023-08-31T14:25:00;20.10;99.90
15872;DHT22;8035;51.962;7.162;2023-08-31T14:27:26;20.10;99.90
15872;DHT22;8035;51.962;7.162;2023-08-31T14:29:52;20.10;99.90
15872;DHT22;8035;51.962;7.162;2023-08-31T14:32:18;20.20;99.90
15872;DHT22;8035;51.962;7.162;2023-08-31T14:34:43;20.30;99.90
15872;DHT22;8035;51.962;7.162;2023-08-31T14:37:09;20.30;99.90
15872;DHT22;8035;51.962;7.162;2023-08-31T14:39:35;20.30;99.90
15872;DHT22;8035;51.962;7.162;2023-08-31T14:42:00;20.30;99.90
15872;DHT22;8035;51.962;7.162;2023-08-31T14:44:26;20.20;99.90
15872;DHT22;8035;51.962;7.162;2023-08-31T14:46:52;20.20;99.90
15872;DHT22;8035;51.962;7.162;2023-08-31T14:49:18;20.10;99.90
15872;DHT22;8035;51.962;7.162;2023-08-31T14:51:43;20.30;99.90
15872;DHT22;8035;51.962;7.162;2023-08-31T14:54:09;20.40;99.90
15872;DHT22;8035;51.962;7.162;2023-08-31T14:56:35;20.40;99.90
15872;DHT22;8035;51.962;7.162;2023-08-31T14:59:00;20.30;99.90
15872;DHT22;8035;51.962;7.162;2023-08-31T15:01:26;20.20;99.90
15872;DHT22;8035;51.962;7.162;2023-08-31T15:03:51;20.20;99.90
15872;DHT22;8035;51.962;7.162;2023-08-31T15:06:17;20.20;99.90
15872;DHT22;8035;51.962;7.162;2023-08-31T15:08:42;20.20;99.90
15872;DHT22;8035;51.962;7.162;2023-08-31T15:11:08;20.30;99.90
15872;DHT22;8035;51.962;7.162;2023-08-31T15:13:34;20.20;99.90
15872;DHT22;8035;51.962;7.162;2023-08-31T15:16:00;20.20;99.90
15872;DHT22;8035;51.962;7.162;2023-08-31T15:18:29;20.30;99.90
15872;DHT22;8035;51.962;7.162;2023-08-31T15:20:54;20.30;99.90
15872;DHT22;8035;51.962;7.162;2023-08-31T15:23:20;20.20;99.90
15872;DHT22;8035;51.962;7.162;2023-08-31T15:25:46;20.10;99.90
15872;DHT22;8035;51.962;7.162;2023-08-31T15:28:12;19.90;99.90
15872;DHT22;8035;51.962;7.162;2023-08-31T15:30:38;19.80;99.90
15872;DHT22;8035;51.962;7.162;2023-08-31T15:33:04;19.60;99.90
15872;DHT22;8035;51.962;7.162;2023-08-31T15:35:30;19.50;99.90
15872;DHT22;8035;51.962;7.162;2023-08-31T15:37:57;19.40;99.90
15872;DHT22;8035;51.962;7.162;2023-08-31T15:40:23;19.40;99.90
15872;DHT22;8035;51.962;7.162;2023-08-31T15:42:48;19.40;99.90
15872;DHT22;8035;51.962;7.162;2023-08-31T15:45:14;19.20;99.90
15872;DHT22;8035;51.962;7.162;2023-08-31T15:47:40;19.20;99.90
15872;DHT22;8035;51.962;7.162;2023-08-31T15:50:06;19.10;99.90
15872;DHT22;8035;51.962;7.162;2023-08-31T15:52:31;19.10;99.90
15872;DHT22;8035;51.962;7.162;2023-08-31T15:54:57;19.10;99.90
15872;DHT22;8035;51.962;7.162;2023-08-31T15:57:24;19.20;99.90
15872;DHT22;8035;51.962;7.162;2023-08-31T15:59:50;19.20;99.90